Capitol Logistics 214


MMMX
Benito Juárez International Airport
Mexico City, MX
MMGL
Don Miguel Hidalgo y Costilla International Airport
Guadalajara, MX

Activity Log

Date Flight Route Aircraft Duration
12/15/2019 CPX214 TLC6A TLC UJ18 UPN UJ3 ONGEL ONGEL1A B763 1h 07m
08/12/2019 CPX214 PTJ5A PTJ MLM GDL B763 1h 05m
07/29/2019 CPX214 TLC6A TLC UJ18 UPN UJ3 ONGEL ONGEL1A B763 1h 12m
12/13/2018 CPX216 PTJ5A PTJ UJ65 MLM UJ12 LONKU LONK1C B763 0h 59m

Route Details

Aircraft Information
Primary: Boeing 767-300BDSF
Backup: Not Available
Route Data
Distance: 268nm
Sched. Duration: 1h 00m
Avg. Duration: 0h 96m (-4m)
Times Flown: 4
Recm'd Route: TLC6A TLC UJ18 UPN UJ3 ONGEL ONGEL1A
Planned Altitude: 28,000ft
Origin Wx: MMMX 061153Z 08004KT 8SM SCT220 15/07 A3028 NOSIG RMK SLP059 52002 909 8/002 HZY
Dest. Wx: MMGL 061149Z 00000KT 8SM SCT300 12/05 A3013 RMK SLP087 57001 907 8/001
Notes:

Financial History
Total Freight: 376,395lbs
Average Load: 94,099lbs/flt
Fuel Used: 43,113lbs
Avg. Fuel Used: 10,778lbs/flt
Fuel Expense: $34,490
Avg. Fuel Expense: $8,623
Avg. Fuel Cost: $0.80/lbs
Total Gross Income: $457,756
Pilot Pay: $756
Total Expenses: $49,646
Total Revenue: $372,566
Average Revenue: $114,439.05